Meath Environmental Platform

Observations for Trim Market St

Time AQI Temp °C Hum % Pres Pa CO μg/m³ H₂S μg/m³ NO μg/m³ NO₂ μg/m³ O₃ μg/m³ SO₂ μg/m³ PM1 μg/m³ PM2.5 μg/m³ PM10 μg/m³
Tuesday 11 August 2026
22:46 2 22.5 50 58,781 0 0 1.3 22.87 57.82 0 1.43 4.02 4.54
22:45 2 22.5 50 59,059 0 0 1.29 28.25 54.48 0 1.43 3.51 3.78
22:42 2 22.6 49 59,772 0 0 1.28 15.42 60.72 0 1.43 4.03 4.53
22:40 2 22.6 49 60,159 0 0 1.3 21.72 56.42 0 2.14 4.55 5.27
22:39 2 22.6 49 60,064 0 0 1.34 15.38 59.21 0 2.14 4.56 6.02
22:37 2 22.7 49 60,062 0 0 1.35 14.75 54.35 0 2.14 4.04 6.02
22:34 2 22.7 49 60,406 0 0 1.33 18.88 55.34 0 2.14 5.09 6.02
22:33 2 22.8 49 60,373 0 0.16 1.22 24.23 59.21 0 1.43 4.06 4.51
22:32 2 22.8 49 60,479 0 0.29 1.23 38.8 43.36 0 2.14 5.1 6.77
22:22 2 23 48 61,605 0 0 1.27 27.08 52.73 0 2.14 4.6 5.26
22:21 3 23 48 61,678 0 0 1.28 19.68 57.5 0 1.43 4.09 6.77
22:20 3 23 48 61,656 0 1.82 1.3 23.35 55.94 0 2.14 4.61 5.25
22:19 2 23 48 61,786 0 1.37 1.29 35.64 49.6 0 2.14 5.13 6.01
22:18 3 23.1 48 61,970 0 0 1.26 23.31 50.03 0 2.14 4.09 5.25
22:17 3 23.1 48 61,962 0 1.66 1.26 28.12 56.53 0 2.14 4.61 5.25
22:16 3 23.1 48 61,992 0 0 1.27 12.04 54.56 0 2.85 5.14 6.01
22:15 3 23.1 48 61,978 0 1.37 1.28 28.11 53.45 0 1.43 4.62 6.77
22:14 3 23.1 48 62,094 0 1.69 1.29 35.92 49.93 0 2.85 6.18 7.53
22:13 3 23.1 48 62,164 0 0 1.31 22.21 51.02 0 3.56 6.18 7.53
22:12 3 23.1 48 62,092 0 2.19 1.32 25.85 52.85 0 2.85 5.67 6.77